createdAt,value
2022-10-19T00:00:33.943Z,3.25
2022-10-19T00:05:35.360Z,4.07
2022-10-19T00:10:40.654Z,3.65
2022-10-19T00:15:42.341Z,3.60
2022-10-19T00:20:43.751Z,2.95
2022-10-19T00:25:55.404Z,3.38
2022-10-19T00:30:57.034Z,3.47
2022-10-19T00:35:58.518Z,4.18
2022-10-19T00:40:59.919Z,3.63
2022-10-19T00:46:01.317Z,4.30
2022-10-19T00:51:02.787Z,3.30
2022-10-19T00:56:09.935Z,4.47
2022-10-19T01:01:15.822Z,3.65
2022-10-19T01:06:18.177Z,2.97
2022-10-19T01:11:35.674Z,3.08
2022-10-19T01:16:50.017Z,3.00
2022-10-19T01:22:01.539Z,2.60
2022-10-19T01:27:26.919Z,2.92
2022-10-19T01:32:46.713Z,3.28
2022-10-19T01:38:03.757Z,2.80
2022-10-19T01:43:17.600Z,2.70
2022-10-19T01:48:33.483Z,2.38
2022-10-19T01:53:41.175Z,3.10
2022-10-19T01:58:45.624Z,2.78
2022-10-19T02:03:48.470Z,2.80
2022-10-19T02:08:52.719Z,2.72
2022-10-19T02:14:01.011Z,3.15
2022-10-19T02:19:03.923Z,3.35
2022-10-19T02:24:05.499Z,3.20
2022-10-19T02:29:07.917Z,3.35
2022-10-19T02:34:10.236Z,3.22
2022-10-19T02:39:11.670Z,2.65
2022-10-19T02:44:38.115Z,3.17
2022-10-19T02:49:39.939Z,2.83
2022-10-19T02:54:43.212Z,3.47
2022-10-19T02:59:45.006Z,2.90
2022-10-19T03:09:49.408Z,3.40
2022-10-19T03:14:50.811Z,3.05
2022-10-19T03:19:52.226Z,4.50
2022-10-19T03:24:53.607Z,4.47
2022-10-19T03:29:55.007Z,2.70
2022-10-19T03:34:56.422Z,3.45
2022-10-19T03:39:57.858Z,3.53
2022-10-19T03:44:59.236Z,3.15
2022-10-19T03:50:00.659Z,3.42
2022-10-19T03:55:02.079Z,3.40
2022-10-19T04:00:04.899Z,3.10
2022-10-19T04:05:13.417Z,3.20
2022-10-19T04:10:14.905Z,2.80
2022-10-19T04:15:16.350Z,2.72
2022-10-19T04:20:17.770Z,2.65
2022-10-19T04:25:19.331Z,2.95
2022-10-19T04:30:20.716Z,3.33
2022-10-19T04:35:22.232Z,3.83
2022-10-19T04:40:23.621Z,3.42
2022-10-19T04:45:24.994Z,3.45
2022-10-19T04:50:26.408Z,4.05
2022-10-19T04:55:30.218Z,5.13
2022-10-19T05:00:31.604Z,4.22
2022-10-19T05:05:34.003Z,3.92
2022-10-19T05:10:36.683Z,5.32
2022-10-19T05:15:38.086Z,5.15
2022-10-19T05:20:39.474Z,4.45
2022-10-19T05:25:40.850Z,5.53
2022-10-19T05:30:46.650Z,6.03
2022-10-19T05:35:50.258Z,7.10
2022-10-19T05:40:53.645Z,5.65
2022-10-19T05:45:55.230Z,6.18
2022-10-19T05:50:56.603Z,6.50
2022-10-19T05:55:58.135Z,5.93
2022-10-19T06:01:00.616Z,7.15
2022-10-19T06:06:03.700Z,6.18
2022-10-19T06:11:26.581Z,5.80
2022-10-19T06:16:29.534Z,5.15
2022-10-19T06:21:32.634Z,4.47
2022-10-19T06:26:34.864Z,5.82
2022-10-19T06:31:36.394Z,5.35
2022-10-19T06:36:38.053Z,6.28
2022-10-19T06:41:39.436Z,6.63
2022-10-19T06:46:53.207Z,6.70
2022-10-19T06:51:54.592Z,7.30
2022-10-19T06:56:55.998Z,7.35
2022-10-19T07:01:57.373Z,7.35
2022-10-19T07:06:58.823Z,6.30
2022-10-19T07:12:00.231Z,8.38
2022-10-19T07:17:01.622Z,9.30
2022-10-19T07:22:03.223Z,7.45
2022-10-19T07:27:04.669Z,7.57
2022-10-19T07:32:06.182Z,7.45
2022-10-19T07:37:07.602Z,9.10
2022-10-19T07:42:09.013Z,8.75
2022-10-19T07:47:10.567Z,8.85
2022-10-19T07:52:11.998Z,8.45
2022-10-19T07:57:13.390Z,9.50
2022-10-19T08:02:16.354Z,9.68
2022-10-19T08:07:17.814Z,9.95
2022-10-19T08:12:19.238Z,9.77
2022-10-19T08:17:20.622Z,11.02
2022-10-19T08:22:22.015Z,11.05
2022-10-19T08:27:23.478Z,10.63
2022-10-19T08:32:24.947Z,9.48
2022-10-19T08:37:40.664Z,10.32
2022-10-19T08:43:09.651Z,12.00
2022-10-19T08:48:24.076Z,10.48
2022-10-19T08:53:49.815Z,11.48
2022-10-19T08:59:12.565Z,11.80
2022-10-19T09:04:22.919Z,12.07
2022-10-19T09:09:25.744Z,11.43
2022-10-19T09:14:31.717Z,11.45
2022-10-19T09:19:33.211Z,9.80
2022-10-19T09:24:47.196Z,9.55
2022-10-19T09:29:54.382Z,10.10
2022-10-19T09:35:01.697Z,11.05
2022-10-19T09:40:05.450Z,10.45
2022-10-19T09:45:19.645Z,10.30
2022-10-19T09:50:23.674Z,10.40
2022-10-19T09:55:36.523Z,9.77
2022-10-19T10:00:41.257Z,10.57
2022-10-19T10:05:47.719Z,8.77
2022-10-19T10:11:07.929Z,10.23
2022-10-19T10:16:14.039Z,10.77
2022-10-19T10:21:25.545Z,10.50
2022-10-19T10:26:28.467Z,10.68
2022-10-19T10:31:30.120Z,11.98
2022-10-19T10:36:31.880Z,10.68
2022-10-19T10:41:42.710Z,10.65
2022-10-19T10:46:59.125Z,9.77
2022-10-19T10:52:05.528Z,9.68
2022-10-19T10:57:20.924Z,11.27
2022-10-19T11:02:44.042Z,9.38
2022-10-19T11:07:48.996Z,8.60
2022-10-19T11:13:14.588Z,8.13
2022-10-19T11:18:34.410Z,8.02
2022-10-19T11:23:56.592Z,8.10
2022-10-19T11:29:34.022Z,8.35
2022-10-19T11:34:50.173Z,8.48
2022-10-19T11:40:09.597Z,8.15
2022-10-19T11:45:20.004Z,8.38
2022-10-19T11:50:54.118Z,8.60
2022-10-19T11:56:39.237Z,8.77
2022-10-19T12:02:00.721Z,9.48
2022-10-19T12:07:18.507Z,7.40
2022-10-19T12:12:32.172Z,7.45
2022-10-19T12:17:37.830Z,7.63
2022-10-19T12:22:40.038Z,7.60
2022-10-19T12:27:42.544Z,7.75
2022-10-19T12:32:55.159Z,7.15
2022-10-19T12:38:23.282Z,5.68
2022-10-19T12:43:33.027Z,5.53
2022-10-19T12:48:34.641Z,6.25
2022-10-19T12:53:43.146Z,6.95
2022-10-19T13:04:13.642Z,5.78
2022-10-19T13:09:39.284Z,7.20
2022-10-19T13:14:43.747Z,7.30
2022-10-19T13:19:45.199Z,6.20
2022-10-19T13:25:25.295Z,5.85
2022-10-19T13:30:35.687Z,5.85
2022-10-19T13:35:37.246Z,5.90
2022-10-19T13:41:01.524Z,6.03
2022-10-19T13:46:02.870Z,6.97
2022-10-19T13:51:24.970Z,7.88
2022-10-19T13:56:41.417Z,7.53
2022-10-19T14:02:15.901Z,7.65
2022-10-19T14:07:26.190Z,7.55
2022-10-19T14:12:29.973Z,8.02
2022-10-19T14:17:31.400Z,8.25
2022-10-19T14:22:34.972Z,8.32
2022-10-19T14:27:36.753Z,8.23
2022-10-19T14:37:45.189Z,7.25
2022-10-19T14:42:48.268Z,6.68
2022-10-19T14:47:55.726Z,7.75
2022-10-19T14:53:23.351Z,7.72
2022-10-19T14:58:28.604Z,7.45
2022-10-19T15:03:30.928Z,7.93
2022-10-19T15:08:45.715Z,7.47
2022-10-19T15:13:47.542Z,6.95
2022-10-19T15:18:50.321Z,6.95
2022-10-19T15:23:52.978Z,6.55
2022-10-19T15:29:06.593Z,6.63
2022-10-19T15:34:24.489Z,6.38
2022-10-19T15:39:41.132Z,6.82
2022-10-19T15:44:46.240Z,6.82
2022-10-19T15:49:53.979Z,5.15
2022-10-19T15:54:57.706Z,6.00
2022-10-19T16:00:10.891Z,5.93
2022-10-19T16:05:12.387Z,7.03
2022-10-19T16:10:19.573Z,7.10
2022-10-19T16:15:23.039Z,6.05
2022-10-19T16:20:27.095Z,6.05
2022-10-19T16:25:28.568Z,5.90
2022-10-19T16:30:30.001Z,6.15
2022-10-19T16:35:31.417Z,6.40
2022-10-19T16:40:32.835Z,5.82
2022-10-19T16:45:34.361Z,6.85
2022-10-19T16:50:35.803Z,6.20
2022-10-19T16:55:37.987Z,5.28
2022-10-19T17:00:39.418Z,5.32
2022-10-19T17:05:40.806Z,5.30
2022-10-19T17:10:42.204Z,5.65
2022-10-19T17:15:43.776Z,5.72
2022-10-19T17:20:45.216Z,6.40
2022-10-19T17:25:48.054Z,5.85
2022-10-19T17:30:49.498Z,6.18
2022-10-19T17:35:50.926Z,6.40
2022-10-19T17:40:52.304Z,6.50
2022-10-19T17:46:04.870Z,7.65
2022-10-19T17:51:08.896Z,6.55
2022-10-19T17:56:12.460Z,6.60
2022-10-19T18:01:15.618Z,6.55
2022-10-19T18:06:22.756Z,6.55
2022-10-19T18:11:30.288Z,6.05
2022-10-19T18:16:40.840Z,6.65
2022-10-19T18:21:44.576Z,7.28
2022-10-19T18:26:46.871Z,5.97
2022-10-19T18:31:49.160Z,6.95
2022-10-19T18:36:51.252Z,7.25
2022-10-19T18:41:53.469Z,6.38
2022-10-19T18:46:55.595Z,7.93
2022-10-19T18:51:56.991Z,7.30
2022-10-19T18:56:58.364Z,6.22
2022-10-19T19:01:59.835Z,7.18
2022-10-19T19:07:01.292Z,7.45
2022-10-19T19:12:02.685Z,8.30
2022-10-19T19:17:04.349Z,7.25
2022-10-19T19:22:07.959Z,7.35
2022-10-19T19:27:10.452Z,7.65
2022-10-19T19:32:11.854Z,7.20
2022-10-19T19:37:14.178Z,7.80
2022-10-19T19:42:15.622Z,7.43
2022-10-19T19:47:17.083Z,7.80
2022-10-19T19:52:18.501Z,8.20
2022-10-19T19:57:19.941Z,8.23
2022-10-19T20:02:21.404Z,6.75
2022-10-19T20:12:47.206Z,9.10
2022-10-19T20:17:48.661Z,8.57
2022-10-19T20:22:50.284Z,9.18
2022-10-19T20:27:51.726Z,8.32
2022-10-19T20:32:53.764Z,8.70
2022-10-19T20:37:55.176Z,9.32
2022-10-19T20:42:56.558Z,8.85
2022-10-19T20:47:57.943Z,10.50
2022-10-19T20:52:59.368Z,8.70
2022-10-19T20:58:00.789Z,9.82
2022-10-19T21:03:02.199Z,9.82
2022-10-19T21:08:03.727Z,9.93
2022-10-19T21:13:05.156Z,10.57
2022-10-19T21:18:06.543Z,10.63
2022-10-19T21:23:07.953Z,12.23
2022-10-19T21:28:09.372Z,10.80
2022-10-19T21:33:10.796Z,10.48
2022-10-19T21:38:12.191Z,10.65
2022-10-19T21:43:13.731Z,10.90
2022-10-19T21:48:15.153Z,10.40
2022-10-19T21:53:20.034Z,11.23
2022-10-19T21:58:21.466Z,10.52
2022-10-19T22:03:22.862Z,11.50
2022-10-19T22:08:24.542Z,11.13
2022-10-19T22:13:25.930Z,12.82
2022-10-19T22:18:27.301Z,11.23
2022-10-19T22:23:28.827Z,12.20
2022-10-19T22:28:30.250Z,10.80
2022-10-19T22:33:31.681Z,11.30
2022-10-19T22:38:33.943Z,12.70
2022-10-19T22:43:35.474Z,11.80
2022-10-19T22:48:36.909Z,12.05
2022-10-19T22:53:38.342Z,11.35
2022-10-19T22:58:39.987Z,11.85
2022-10-19T23:03:41.956Z,11.05
2022-10-19T23:08:44.596Z,11.95
2022-10-19T23:13:46.350Z,11.73
2022-10-19T23:18:48.230Z,12.18
2022-10-19T23:23:49.674Z,12.07
2022-10-19T23:28:51.479Z,13.70
2022-10-19T23:33:53.779Z,12.18
2022-10-19T23:38:56.593Z,12.65
2022-10-19T23:43:58.012Z,11.95
2022-10-19T23:48:59.404Z,12.60
2022-10-19T23:54:00.824Z,12.82
2022-10-19T23:59:02.212Z,14.15
